Wincanton — V7BU3 — position and weather

sailwx.info

Track history (hours):
 
Tides and Currents Weather Stations Pressure Air Temp Water Temp Dewpoint Dewpoint Depression Visibility Wind Speed Wind Dir Waves Ship Positions

Wincanton

Last reported at 2018-Feb-21 01:18 UTC. Time now 2018-Feb-21 01:37 UTC.
Position S 33°01' E 151°47'.

Length 120 m; draft 5.8 m.

Type: Tanker. MMSI: 538005199.

Date/timePositionNaut miles runAvg speedWind from/ knotsBaromVisibWave heightAir tempDewpointWater temp
2018-Feb-21 01:18S 33°01' E 151°47'3 9.2
2018-Feb-21 00:59S 33°04' E 151°48'8 0.4
2018-Feb-20 05:51S 33°09' E 151°56'2 2.0
2018-Feb-20 05:02S 33°10' E 151°57'0 1.9
2018-Feb-20 04:55S 33°10' E 151°58'1 2.9
2018-Feb-20 04:29S 33°09' E 151°57'0 0.7
2018-Feb-20 03:52S 33°09' E 151°56'2 1.1
2018-Feb-20 02:28S 33°08' E 151°55'1 1.2
2018-Feb-20 01:53S 33°07' E 151°54'0 1.0
2018-Feb-20 01:27S 33°07' E 151°54'0 1.0
2018-Feb-20 00:59S 33°07' E 151°54'2 1.6
2018-Feb-19 23:52S 33°07' E 151°52'2 4.0
2018-Feb-19 23:21S 33°06' E 151°50'4 0.2
2018-Feb-19 00:32S 33°04' E 151°45'0 0.0
2018-Feb-19 00:23S 33°04' E 151°45'6 7.5
2018-Feb-18 23:33S 33°10' E 151°47'210.6
2018-Feb-18 23:24S 33°12' E 151°48'6 9.9
2018-Feb-18 22:46S 33°18' E 151°49'4 8.9
2018-Feb-18 22:19S 33°21' E 151°48'3 7.2
2018-Feb-18 21:56S 33°24' E 151°46'1 1.6
2018-Feb-18 21:21S 33°25' E 151°46'0 1.1
2018-Feb-18 20:56S 33°25' E 151°47'1 1.2
2018-Feb-18 20:30S 33°24' E 151°47'1 1.2
2018-Feb-18 19:55S 33°24' E 151°48'1 1.3
2018-Feb-18 19:28S 33°23' E 151°48'1 1.5
2018-Feb-18 19:00S 33°23' E 151°48'1 1.7
2018-Feb-18 18:30S 33°22' E 151°49'1 1.7
2018-Feb-18 18:00S 33°21' E 151°50'1 1.9
2018-Feb-18 17:30S 33°20' E 151°50'1 2.1
2018-Feb-18 17:00S 33°20' E 151°51'1 2.1
2018-Feb-18 16:30S 33°19' E 151°52'1 2.2
2018-Feb-18 16:00S 33°18' E 151°52'1 2.4
2018-Feb-18 15:30S 33°17' E 151°53'1 2.4
2018-Feb-18 15:00S 33°16' E 151°54'1 2.5
2018-Feb-18 14:30S 33°15' E 151°55'1 2.6
2018-Feb-18 14:00S 33°14' E 151°56'1 2.6
2018-Feb-18 13:30S 33°13' E 151°57'1 2.7
2018-Feb-18 13:00S 33°12' E 151°59'1 2.7
2018-Feb-18 12:30S 33°12' E 151°60'1 2.5
2018-Feb-18 12:00S 33°11' E 152°01'4 7.7
2018-Feb-18 11:30S 33°12' E 151°57'4 8.7
2018-Feb-18 11:00S 33°12' E 151°52'1 1.3
2018-Feb-18 10:30S 33°12' E 151°52'2 3.3
2018-Feb-18 10:00S 33°11' E 151°53'2 3.3
2018-Feb-18 09:28S 33°10' E 151°55'1 3.2
2018-Feb-18 09:00S 33°09' E 151°56'2 3.2
2018-Feb-18 08:30S 33°08' E 151°58'1 1.8
2018-Feb-18 08:00S 33°07' E 151°57'5 9.7
2018-Feb-18 07:30S 33°05' E 151°52'510.5
2018-Feb-18 07:00S 33°01' E 151°48'0 0.6
2018-Feb-18 06:29S 33°00' E 151°48'0 0.0
2018-Feb-18 05:59S 33°00' E 151°48'0 0.0
2018-Feb-18 05:20S 33°00' E 151°48'0 0.0
2018-Feb-18 04:59S 33°00' E 151°48'0 0.0
2018-Feb-18 04:29S 33°00' E 151°48'0 0.0
2018-Feb-18 03:59S 33°00' E 151°48'0 0.0
2018-Feb-18 03:20S 33°00' E 151°48'0 0.0
2018-Feb-18 02:56S 33°00' E 151°48'0 0.0
2018-Feb-18 02:29S 33°00' E 151°48'0 0.0
2018-Feb-18 01:53S 33°00' E 151°48'0 0.0
2018-Feb-18 01:29S 33°00' E 151°48'0 0.0
2018-Feb-18 00:53S 33°00' E 151°48'0 0.0
2018-Feb-17 23:23S 33°00' E 151°48'0 0.0
2018-Feb-17 22:59S 33°00' E 151°48'0 0.0
2018-Feb-17 22:23S 33°00' E 151°48'0 0.0
2018-Feb-17 21:41S 33°00' E 151°48'0 0.0
2018-Feb-17 21:29S 33°00' E 151°48'0 0.0
2018-Feb-17 20:56S 33°00' E 151°48'0 0.0
2018-Feb-17 20:29S 33°00' E 151°48'0 0.0
2018-Feb-17 19:59S 33°00' E 151°48'0 0.0
2018-Feb-17 19:26S 33°00' E 151°48'0 0.0
2018-Feb-17 18:50S 33°00' E 151°48'0 0.0
2018-Feb-17 18:26S 33°00' E 151°48'0 0.0
2018-Feb-17 17:53S 33°00' E 151°48'0 0.0
2018-Feb-17 17:08S 33°00' E 151°48'0 0.0
2018-Feb-17 16:50S 33°00' E 151°48'0 0.0
2018-Feb-17 16:26S 33°00' E 151°48'0 0.0
2018-Feb-17 15:59S 33°00' E 151°48'0 0.0
2018-Feb-17 15:26S 33°00' E 151°48'0 0.0
2018-Feb-17 14:11S 33°00' E 151°48'0 0.0
2018-Feb-17 13:59S 33°00' E 151°48'0 0.0
2018-Feb-17 13:29S 33°00' E 151°48'0 0.0
2018-Feb-17 12:38S 33°00' E 151°48'0 0.0
2018-Feb-17 11:59S 33°00' E 151°48'0 0.0
2018-Feb-17 11:29S 33°00' E 151°48'0 0.0
2018-Feb-17 10:59S 33°00' E 151°48'0 0.0
2018-Feb-17 10:05S 33°00' E 151°48'0 0.0
2018-Feb-17 09:50S 33°00' E 151°48'0 0.0
2018-Feb-17 08:44S 33°00' E 151°48'0 0.0
2018-Feb-17 08:23S 33°00' E 151°48'0 0.0
2018-Feb-17 07:59S 33°00' E 151°48'0 0.0
2018-Feb-17 06:23S 33°00' E 151°48'0 0.0
2018-Feb-17 05:59S 33°00' E 151°48'0 0.0
2018-Feb-17 05:29S 33°00' E 151°48'0 0.0
2018-Feb-17 04:14S 33°00' E 151°48'0 0.0
2018-Feb-17 03:56S 33°00' E 151°48'0 0.0
2018-Feb-17 03:20S 33°00' E 151°48'0 0.0
2018-Feb-17 01:59S 33°00' E 151°48'0 0.0
2018-Feb-17 01:26S 33°00' E 151°48'0 0.0
2018-Feb-17 00:32S 33°00' E 151°48'0 0.0
2018-Feb-17 00:26S 33°00' E 151°48'0 0.0
2018-Feb-16 22:14S 33°00' E 151°48'0 0.0
2018-Feb-16 21:56S 33°00' E 151°48'0 0.0
2018-Feb-16 21:26S 33°00' E 151°48'0 0.0
2018-Feb-16 20:53S 33°00' E 151°48'0 0.0
2018-Feb-16 20:23S 33°00' E 151°48'0 0.0
2018-Feb-16 19:59S 33°00' E 151°48'0 0.0
2018-Feb-15 21:53S 33°00' E 151°48'0 0.0
2018-Feb-15 21:29S 33°00' E 151°48'0 0.0
2018-Feb-15 20:59S 33°00' E 151°48'0 0.0
2018-Feb-15 20:23S 33°00' E 151°48'0 0.0
2018-Feb-15 19:59S 33°00' E 151°48'0 0.0
2018-Feb-15 19:26S 33°00' E 151°48'0 0.1
2018-Feb-15 18:59S 33°00' E 151°48'0 0.0
2018-Feb-15 18:11S 33°00' E 151°48'0 0.1
2018-Feb-15 17:59S 33°00' E 151°48'0 0.0
2018-Feb-15 17:14S 33°00' E 151°48'0 0.0
2018-Feb-15 16:56S 33°00' E 151°48'0 0.0
2018-Feb-15 16:26S 33°00' E 151°48'0 0.0
2018-Feb-15 15:08S 33°00' E 151°48'0 0.0
2018-Feb-15 13:11S 33°00' E 151°48'0 0.0
2018-Feb-15 12:56S 33°00' E 151°48'1 2.2
2018-Feb-15 12:29S 33°00' E 151°49'511.2
2018-Feb-15 12:00S 32°60' E 151°56'611.6
2018-Feb-15 11:30S 32°56' E 152°02'611.5
2018-Feb-15 11:00S 32°55' E 152°08'611.7
2018-Feb-15 10:30S 32°53' E 152°15'611.8
2018-Feb-15 10:00S 32°51' E 152°21'611.2
2018-Feb-15 09:30S 32°48' E 152°27'611.6
2018-Feb-15 09:00S 32°43' E 152°30'611.7
2018-Feb-15 08:30S 32°38' E 152°34'611.6
2018-Feb-15 08:00S 32°33' E 152°38'21511.2
2018-Feb-14 12:51S 29°06' E 153°46'413.1
2018-Feb-14 12:30S 29°02' E 153°47'713.2
2018-Feb-14 11:58S 28°55' E 153°48'1713.9
2018-Feb-14 10:44S 28°38' E 153°52'414.9
2018-Feb-14 10:30S 28°34' E 153°51'1114.8
2018-Feb-14 09:46S 28°24' E 153°50'414.7
2018-Feb-14 09:29S 28°19' E 153°50'714.6
2018-Feb-14 09:00S 28°12' E 153°49'714.2
2018-Feb-14 08:30S 28°05' E 153°48'714.3
2018-Feb-14 08:00S 27°58' E 153°48'714.1
2018-Feb-14 07:30S 27°51' E 153°47'713.7
2018-Feb-14 07:00S 27°45' E 153°45'913.5
2018-Feb-14 06:21S 27°36' E 153°43'513.3
2018-Feb-14 06:00S 27°31' E 153°42'713.1
2018-Feb-14 05:29S 27°25' E 153°41'612.8
2018-Feb-14 05:00S 27°19' E 153°40'612.6
2018-Feb-14 04:30S 27°12' E 153°39'612.3
2018-Feb-14 04:00S 27°06' E 153°38'811.8
2018-Feb-14 03:21S 26°59' E 153°37'811.4
2018-Feb-14 02:36S 26°50' E 153°36'111.8
2018-Feb-14 02:29S 26°49' E 153°36'511.0
2018-Feb-14 02:00S 26°43' E 153°36'611.1
2018-Feb-14 01:30S 26°38' E 153°35'215 6.5
2018-Feb-12 16:09S 23°47' E 151°10'0 0.0
2018-Feb-12 15:45S 23°47' E 151°10'0 0.0
2018-Feb-12 04:42S 23°47' E 151°10'0 0.0
2018-Feb-12 04:22S 23°47' E 151°10'0 0.8
2018-Feb-12 04:00S 23°47' E 151°11'10 8.9
2018-Feb-12 02:51S 23°52' E 151°21'3 9.0
2018-Feb-12 02:30S 23°54' E 151°23'4 8.9
2018-Feb-12 01:59S 23°56' E 151°28'5 9.5
2018-Feb-12 01:26S 23°52' E 151°32'4 8.5
2018-Feb-12 01:00S 23°50' E 151°35'3 6.7
2018-Feb-12 00:30S 23°49' E 151°39'  
Track history (hours):
 
Tides and Currents Weather Stations Pressure Air Temp Water Temp Dewpoint Dewpoint Depression Visibility Wind Speed Wind Dir Waves Ship Positions

Wincanton

Last reported at 2018-Feb-21 01:18 UTC. Time now 2018-Feb-21 01:37 UTC.
Position S 33°01' E 151°47'.

Length 120 m; draft 5.8 m.

Type: Tanker. MMSI: 538005199.

Date/timePositionNaut miles runAvg speedWind from/ knotsBaromVisibWave heightAir tempDewpointWater temp
2018-Feb-21 01:18S 33°01' E 151°47'3 9.2
2018-Feb-21 00:59S 33°04' E 151°48'8 0.4
2018-Feb-20 05:51S 33°09' E 151°56'2 2.0
2018-Feb-20 05:02S 33°10' E 151°57'0 1.9
2018-Feb-20 04:55S 33°10' E 151°58'1 2.9
2018-Feb-20 04:29S 33°09' E 151°57'0 0.7
2018-Feb-20 03:52S 33°09' E 151°56'2 1.1
2018-Feb-20 02:28S 33°08' E 151°55'1 1.2
2018-Feb-20 01:53S 33°07' E 151°54'0 1.0
2018-Feb-20 01:27S 33°07' E 151°54'0 1.0
2018-Feb-20 00:59S 33°07' E 151°54'2 1.6
2018-Feb-19 23:52S 33°07' E 151°52'2 4.0
2018-Feb-19 23:21S 33°06' E 151°50'4 0.2
2018-Feb-19 00:32S 33°04' E 151°45'0 0.0
2018-Feb-19 00:23S 33°04' E 151°45'6 7.5
2018-Feb-18 23:33S 33°10' E 151°47'210.6
2018-Feb-18 23:24S 33°12' E 151°48'6 9.9
2018-Feb-18 22:46S 33°18' E 151°49'4 8.9
2018-Feb-18 22:19S 33°21' E 151°48'3 7.2
2018-Feb-18 21:56S 33°24' E 151°46'1 1.6
2018-Feb-18 21:21S 33°25' E 151°46'0 1.1
2018-Feb-18 20:56S 33°25' E 151°47'1 1.2
2018-Feb-18 20:30S 33°24' E 151°47'1 1.2
2018-Feb-18 19:55S 33°24' E 151°48'1 1.3
2018-Feb-18 19:28S 33°23' E 151°48'1 1.5
2018-Feb-18 19:00S 33°23' E 151°48'1 1.7
2018-Feb-18 18:30S 33°22' E 151°49'1 1.7
2018-Feb-18 18:00S 33°21' E 151°50'1 1.9
2018-Feb-18 17:30S 33°20' E 151°50'1 2.1
2018-Feb-18 17:00S 33°20' E 151°51'1 2.1
2018-Feb-18 16:30S 33°19' E 151°52'1 2.2
2018-Feb-18 16:00S 33°18' E 151°52'1 2.4
2018-Feb-18 15:30S 33°17' E 151°53'1 2.4
2018-Feb-18 15:00S 33°16' E 151°54'1 2.5
2018-Feb-18 14:30S 33°15' E 151°55'1 2.6
2018-Feb-18 14:00S 33°14' E 151°56'1 2.6
2018-Feb-18 13:30S 33°13' E 151°57'1 2.7
2018-Feb-18 13:00S 33°12' E 151°59'1 2.7
2018-Feb-18 12:30S 33°12' E 151°60'1 2.5
2018-Feb-18 12:00S 33°11' E 152°01'4 7.7
2018-Feb-18 11:30S 33°12' E 151°57'4 8.7
2018-Feb-18 11:00S 33°12' E 151°52'1 1.3
2018-Feb-18 10:30S 33°12' E 151°52'2 3.3
2018-Feb-18 10:00S 33°11' E 151°53'2 3.3
2018-Feb-18 09:28S 33°10' E 151°55'1 3.2
2018-Feb-18 09:00S 33°09' E 151°56'2 3.2
2018-Feb-18 08:30S 33°08' E 151°58'1 1.8
2018-Feb-18 08:00S 33°07' E 151°57'5 9.7
2018-Feb-18 07:30S 33°05' E 151°52'510.5
2018-Feb-18 07:00S 33°01' E 151°48'0 0.6
2018-Feb-18 06:29S 33°00' E 151°48'0 0.0
2018-Feb-18 05:59S 33°00' E 151°48'0 0.0
2018-Feb-18 05:20S 33°00' E 151°48'0 0.0
2018-Feb-18 04:59S 33°00' E 151°48'0 0.0
2018-Feb-18 04:29S 33°00' E 151°48'0 0.0
2018-Feb-18 03:59S 33°00' E 151°48'0 0.0
2018-Feb-18 03:20S 33°00' E 151°48'0 0.0
2018-Feb-18 02:56S 33°00' E 151°48'0 0.0
2018-Feb-18 02:29S 33°00' E 151°48'0 0.0
2018-Feb-18 01:53S 33°00' E 151°48'0 0.0
2018-Feb-18 01:29S 33°00' E 151°48'0 0.0
2018-Feb-18 00:53S 33°00' E 151°48'0 0.0
2018-Feb-17 23:23S 33°00' E 151°48'0 0.0
2018-Feb-17 22:59S 33°00' E 151°48'0 0.0
2018-Feb-17 22:23S 33°00' E 151°48'0 0.0
2018-Feb-17 21:41S 33°00' E 151°48'0 0.0
2018-Feb-17 21:29S 33°00' E 151°48'0 0.0
2018-Feb-17 20:56S 33°00' E 151°48'0 0.0
2018-Feb-17 20:29S 33°00' E 151°48'0 0.0
2018-Feb-17 19:59S 33°00' E 151°48'0 0.0
2018-Feb-17 19:26S 33°00' E 151°48'0 0.0
2018-Feb-17 18:50S 33°00' E 151°48'0 0.0
2018-Feb-17 18:26S 33°00' E 151°48'0 0.0
2018-Feb-17 17:53S 33°00' E 151°48'0 0.0
2018-Feb-17 17:08S 33°00' E 151°48'0 0.0
2018-Feb-17 16:50S 33°00' E 151°48'0 0.0
2018-Feb-17 16:26S 33°00' E 151°48'0 0.0
2018-Feb-17 15:59S 33°00' E 151°48'0 0.0
2018-Feb-17 15:26S 33°00' E 151°48'0 0.0
2018-Feb-17 14:11S 33°00' E 151°48'0 0.0
2018-Feb-17 13:59S 33°00' E 151°48'0 0.0
2018-Feb-17 13:29S 33°00' E 151°48'0 0.0
2018-Feb-17 12:38S 33°00' E 151°48'0 0.0
2018-Feb-17 11:59S 33°00' E 151°48'0 0.0
2018-Feb-17 11:29S 33°00' E 151°48'0 0.0
2018-Feb-17 10:59S 33°00' E 151°48'0 0.0
2018-Feb-17 10:05S 33°00' E 151°48'0 0.0
2018-Feb-17 09:50S 33°00' E 151°48'0 0.0
2018-Feb-17 08:44S 33°00' E 151°48'0 0.0
2018-Feb-17 08:23S 33°00' E 151°48'0 0.0
2018-Feb-17 07:59S 33°00' E 151°48'0 0.0
2018-Feb-17 06:23S 33°00' E 151°48'0 0.0
2018-Feb-17 05:59S 33°00' E 151°48'0 0.0
2018-Feb-17 05:29S 33°00' E 151°48'0 0.0
2018-Feb-17 04:14S 33°00' E 151°48'0 0.0
2018-Feb-17 03:56S 33°00' E 151°48'0 0.0
2018-Feb-17 03:20S 33°00' E 151°48'0 0.0
2018-Feb-17 01:59S 33°00' E 151°48'0 0.0
2018-Feb-17 01:26S 33°00' E 151°48'0 0.0
2018-Feb-17 00:32S 33°00' E 151°48'0 0.0
2018-Feb-17 00:26S 33°00' E 151°48'0 0.0
2018-Feb-16 22:14S 33°00' E 151°48'0 0.0
2018-Feb-16 21:56S 33°00' E 151°48'0 0.0
2018-Feb-16 21:26S 33°00' E 151°48'0 0.0
2018-Feb-16 20:53S 33°00' E 151°48'0 0.0
2018-Feb-16 20:23S 33°00' E 151°48'0 0.0
2018-Feb-16 19:59S 33°00' E 151°48'0 0.0
2018-Feb-15 21:53S 33°00' E 151°48'0 0.0
2018-Feb-15 21:29S 33°00' E 151°48'0 0.0
2018-Feb-15 20:59S 33°00' E 151°48'0 0.0
2018-Feb-15 20:23S 33°00' E 151°48'0 0.0
2018-Feb-15 19:59S 33°00' E 151°48'0 0.0
2018-Feb-15 19:26S 33°00' E 151°48'0 0.1
2018-Feb-15 18:59S 33°00' E 151°48'0 0.0
2018-Feb-15 18:11S 33°00' E 151°48'0 0.1
2018-Feb-15 17:59S 33°00' E 151°48'0 0.0
2018-Feb-15 17:14S 33°00' E 151°48'0 0.0
2018-Feb-15 16:56S 33°00' E 151°48'0 0.0
2018-Feb-15 16:26S 33°00' E 151°48'0 0.0
2018-Feb-15 15:08S 33°00' E 151°48'0 0.0
2018-Feb-15 13:11S 33°00' E 151°48'0 0.0
2018-Feb-15 12:56S 33°00' E 151°48'1 2.2
2018-Feb-15 12:29S 33°00' E 151°49'511.2
2018-Feb-15 12:00S 32°60' E 151°56'611.6
2018-Feb-15 11:30S 32°56' E 152°02'611.5
2018-Feb-15 11:00S 32°55' E 152°08'611.7
2018-Feb-15 10:30S 32°53' E 152°15'611.8
2018-Feb-15 10:00S 32°51' E 152°21'611.2
2018-Feb-15 09:30S 32°48' E 152°27'611.6
2018-Feb-15 09:00S 32°43' E 152°30'611.7
2018-Feb-15 08:30S 32°38' E 152°34'611.6
2018-Feb-15 08:00S 32°33' E 152°38'21511.2
2018-Feb-14 12:51S 29°06' E 153°46'413.1
2018-Feb-14 12:30S 29°02' E 153°47'713.2
2018-Feb-14 11:58S 28°55' E 153°48'1713.9
2018-Feb-14 10:44S 28°38' E 153°52'414.9
2018-Feb-14 10:30S 28°34' E 153°51'1114.8
2018-Feb-14 09:46S 28°24' E 153°50'414.7
2018-Feb-14 09:29S 28°19' E 153°50'714.6
2018-Feb-14 09:00S 28°12' E 153°49'714.2
2018-Feb-14 08:30S 28°05' E 153°48'714.3
2018-Feb-14 08:00S 27°58' E 153°48'714.1
2018-Feb-14 07:30S 27°51' E 153°47'713.7
2018-Feb-14 07:00S 27°45' E 153°45'913.5
2018-Feb-14 06:21S 27°36' E 153°43'513.3
2018-Feb-14 06:00S 27°31' E 153°42'713.1
2018-Feb-14 05:29S 27°25' E 153°41'612.8
2018-Feb-14 05:00S 27°19' E 153°40'612.6
2018-Feb-14 04:30S 27°12' E 153°39'612.3
2018-Feb-14 04:00S 27°06' E 153°38'811.8
2018-Feb-14 03:21S 26°59' E 153°37'811.4
2018-Feb-14 02:36S 26°50' E 153°36'111.8
2018-Feb-14 02:29S 26°49' E 153°36'511.0
2018-Feb-14 02:00S 26°43' E 153°36'611.1
2018-Feb-14 01:30S 26°38' E 153°35'215 6.5
2018-Feb-12 16:09S 23°47' E 151°10'0 0.0
2018-Feb-12 15:45S 23°47' E 151°10'0 0.0
2018-Feb-12 04:42S 23°47' E 151°10'0 0.0
2018-Feb-12 04:22S 23°47' E 151°10'0 0.8
2018-Feb-12 04:00S 23°47' E 151°11'10 8.9
2018-Feb-12 02:51S 23°52' E 151°21'3 9.0
2018-Feb-12 02:30S 23°54' E 151°23'4 8.9
2018-Feb-12 01:59S 23°56' E 151°28'5 9.5
2018-Feb-12 01:26S 23°52' E 151°32'4 8.5
2018-Feb-12 01:00S 23°50' E 151°35'3 6.7
2018-Feb-12 00:30S 23°49' E 151°39'  

Dump ship's entire track history